sensor_id;sensor_type;location;lat;lon;timestamp;pressure;altitude;pressure_sealevel;temperature;humidity
38786;BME280;24535;45.508;12.252;2023-07-13T00:02:06;101201.75;;;30.49;53.67
38786;BME280;24535;45.508;12.252;2023-07-13T00:04:31;101193.59;;;30.49;53.09
38786;BME280;24535;45.508;12.252;2023-07-13T00:06:56;101209.50;;;30.52;52.72
38786;BME280;24535;45.508;12.252;2023-07-13T00:09:22;101222.66;;;30.55;53.09
38786;BME280;24535;45.508;12.252;2023-07-13T00:11:50;101243.34;;;30.56;53.07
38786;BME280;24535;45.508;12.252;2023-07-13T00:14:16;101275.75;;;30.58;53.02
38786;BME280;24535;45.508;12.252;2023-07-13T00:16:41;101275.75;;;30.58;53.33
38786;BME280;24535;45.508;12.252;2023-07-13T00:19:08;101274.13;;;30.50;52.24
38786;BME280;24535;45.508;12.252;2023-07-13T00:21:34;101284.03;;;30.44;52.67
38786;BME280;24535;45.508;12.252;2023-07-13T00:24:00;101264.38;;;30.42;52.36
38786;BME280;24535;45.508;12.252;2023-07-13T00:26:26;101231.63;;;30.31;51.91
38786;BME280;24535;45.508;12.252;2023-07-13T00:28:51;101223.56;;;30.17;51.80
38786;BME280;24535;45.508;12.252;2023-07-13T00:31:16;101217.53;;;30.09;52.29
38786;BME280;24535;45.508;12.252;2023-07-13T00:33:42;101235.56;;;30.03;52.94
38786;BME280;24535;45.508;12.252;2023-07-13T00:36:07;101249.19;;;29.96;52.96
38786;BME280;24535;45.508;12.252;2023-07-13T00:38:33;101263.03;;;29.88;52.76
38786;BME280;24535;45.508;12.252;2023-07-13T00:40:58;101283.13;;;29.80;53.05
38786;BME280;24535;45.508;12.252;2023-07-13T00:43:25;101296.75;;;29.74;53.63
38786;BME280;24535;45.508;12.252;2023-07-13T00:48:20;101308.28;;;29.56;53.29
38786;BME280;24535;45.508;12.252;2023-07-13T00:50:47;101297.44;;;29.49;53.56
38786;BME280;24535;45.508;12.252;2023-07-13T00:53:13;101288.69;;;29.41;53.87
38786;BME280;24535;45.508;12.252;2023-07-13T00:55:39;101292.69;;;29.31;54.33
38786;BME280;24535;45.508;12.252;2023-07-13T00:58:05;101293.53;;;29.25;54.09
38786;BME280;24535;45.508;12.252;2023-07-13T01:00:31;101317.34;;;29.23;54.81
38786;BME280;24535;45.508;12.252;2023-07-13T01:02:58;101457.66;;;29.29;55.12
38786;BME280;24535;45.508;12.252;2023-07-13T01:05:24;101409.41;;;29.31;54.42
38786;BME280;24535;45.508;12.252;2023-07-13T01:07:50;101366.63;;;29.34;53.98
38786;BME280;24535;45.508;12.252;2023-07-13T01:10:17;101311.91;;;29.23;53.74
38786;BME280;24535;45.508;12.252;2023-07-13T01:12:42;101310.47;;;29.14;53.25
38786;BME280;24535;45.508;12.252;2023-07-13T01:17:52;101241.19;;;28.72;54.16
38786;BME280;24535;45.508;12.252;2023-07-13T01:20:17;101207.84;;;28.51;54.78
38786;BME280;24535;45.508;12.252;2023-07-13T01:22:42;101199.09;;;28.36;54.47
38786;BME280;24535;45.508;12.252;2023-07-13T01:25:08;101193.44;;;28.24;54.47
38786;BME280;24535;45.508;12.252;2023-07-13T01:27:33;101190.09;;;28.16;54.68
38786;BME280;24535;45.508;12.252;2023-07-13T01:29:59;101180.72;;;28.12;54.51
38786;BME280;24535;45.508;12.252;2023-07-13T01:32:28;101169.66;;;28.06;54.63
38786;BME280;24535;45.508;12.252;2023-07-13T01:34:56;101167.78;;;28.00;54.01
38786;BME280;24535;45.508;12.252;2023-07-13T01:37:22;101164.84;;;27.95;53.91
38786;BME280;24535;45.508;12.252;2023-07-13T01:39:47;101176.72;;;27.94;53.92
38786;BME280;24535;45.508;12.252;2023-07-13T01:42:13;101185.25;;;27.91;54.43
38786;BME280;24535;45.508;12.252;2023-07-13T01:44:39;101196.94;;;27.92;55.02
38786;BME280;24535;45.508;12.252;2023-07-13T01:47:04;101208.00;;;27.97;54.48
38786;BME280;24535;45.508;12.252;2023-07-13T01:49:29;101205.47;;;27.95;54.48
38786;BME280;24535;45.508;12.252;2023-07-13T01:51:55;101203.38;;;27.91;54.60
38786;BME280;24535;45.508;12.252;2023-07-13T01:54:20;101190.28;;;27.88;54.77
38786;BME280;24535;45.508;12.252;2023-07-13T01:56:45;101191.72;;;27.83;54.85
38786;BME280;24535;45.508;12.252;2023-07-13T01:59:11;101181.06;;;27.82;54.81
38786;BME280;24535;45.508;12.252;2023-07-13T02:01:36;101182.34;;;27.79;55.06
38786;BME280;24535;45.508;12.252;2023-07-13T02:04:02;101185.84;;;27.73;55.39
38786;BME280;24535;45.508;12.252;2023-07-13T02:06:27;101181.84;;;27.69;55.20
38786;BME280;24535;45.508;12.252;2023-07-13T02:08:52;101183.09;;;27.67;55.37
38786;BME280;24535;45.508;12.252;2023-07-13T02:11:18;101173.69;;;27.63;55.52
38786;BME280;24535;45.508;12.252;2023-07-13T02:13:43;101173.91;;;27.61;55.21
38786;BME280;24535;45.508;12.252;2023-07-13T02:16:09;101173.69;;;27.63;56.14
38786;BME280;24535;45.508;12.252;2023-07-13T02:18:34;101167.88;;;27.59;55.66
38786;BME280;24535;45.508;12.252;2023-07-13T02:20:59;101179.72;;;27.58;56.30
38786;BME280;24535;45.508;12.252;2023-07-13T02:23:24;101186.59;;;27.54;56.12
38786;BME280;24535;45.508;12.252;2023-07-13T02:25:54;101188.88;;;27.50;55.69
38786;BME280;24535;45.508;12.252;2023-07-13T02:28:19;101179.47;;;27.46;56.34
38786;BME280;24535;45.508;12.252;2023-07-13T02:30:44;101179.06;;;27.43;56.24
38786;BME280;24535;45.508;12.252;2023-07-13T02:33:10;101175.94;;;27.39;56.28
38786;BME280;24535;45.508;12.252;2023-07-13T02:35:35;101177.78;;;27.39;56.36
38786;BME280;24535;45.508;12.252;2023-07-13T02:38:00;101177.78;;;27.39;56.41
38786;BME280;24535;45.508;12.252;2023-07-13T02:40:25;101177.38;;;27.42;56.06
38786;BME280;24535;45.508;12.252;2023-07-13T02:42:51;101192.78;;;27.41;56.17
38786;BME280;24535;45.508;12.252;2023-07-13T02:45:16;101185.72;;;27.40;56.41
38786;BME280;24535;45.508;12.252;2023-07-13T02:47:41;101199.25;;;27.40;56.22
38786;BME280;24535;45.508;12.252;2023-07-13T02:50:07;101209.88;;;27.42;56.71
38786;BME280;24535;45.508;12.252;2023-07-13T02:52:33;101199.88;;;27.42;56.55
38786;BME280;24535;45.508;12.252;2023-07-13T02:54:58;101199.88;;;27.42;56.79
38786;BME280;24535;45.508;12.252;2023-07-13T02:57:23;101201.13;;;27.46;57.36
38786;BME280;24535;45.508;12.252;2023-07-13T02:59:49;101195.31;;;27.49;57.17
38786;BME280;24535;45.508;12.252;2023-07-13T03:02:15;101194.09;;;27.52;56.92
38786;BME280;24535;45.508;12.252;2023-07-13T03:04:40;101189.50;;;27.52;56.48
38786;BME280;24535;45.508;12.252;2023-07-13T03:07:06;101173.66;;;27.49;56.81
38786;BME280;24535;45.508;12.252;2023-07-13T03:09:32;101182.44;;;27.51;57.09
38786;BME280;24535;45.508;12.252;2023-07-13T03:11:58;101181.00;;;27.62;57.48
38786;BME280;24535;45.508;12.252;2023-07-13T03:14:23;101185.84;;;27.73;57.13
38786;BME280;24535;45.508;12.252;2023-07-13T03:16:48;101194.44;;;27.83;57.17
38786;BME280;24535;45.508;12.252;2023-07-13T03:19:14;101210.06;;;27.88;56.19
38786;BME280;24535;45.508;12.252;2023-07-13T03:21:39;101212.78;;;27.88;55.93
38786;BME280;24535;45.508;12.252;2023-07-13T03:24:04;101221.72;;;27.89;56.65
38786;BME280;24535;45.508;12.252;2023-07-13T03:26:30;101216.09;;;27.90;56.18
38786;BME280;24535;45.508;12.252;2023-07-13T03:28:55;101210.06;;;27.88;55.98
38786;BME280;24535;45.508;12.252;2023-07-13T03:31:22;101211.06;;;27.87;56.08
38786;BME280;24535;45.508;12.252;2023-07-13T03:33:47;101227.53;;;27.85;56.73
38786;BME280;24535;45.508;12.252;2023-07-13T03:36:17;101239.84;;;27.88;56.24
38786;BME280;24535;45.508;12.252;2023-07-13T03:38:49;101250.25;;;27.84;56.78
38786;BME280;24535;45.508;12.252;2023-07-13T03:41:15;101262.34;;;27.89;57.08
38786;BME280;24535;45.508;12.252;2023-07-13T03:43:41;101275.91;;;27.95;56.64
38786;BME280;24535;45.508;12.252;2023-07-13T03:46:07;101269.47;;;27.96;56.75
38786;BME280;24535;45.508;12.252;2023-07-13T03:48:32;101260.50;;;27.96;56.27
38786;BME280;24535;45.508;12.252;2023-07-13T03:50:57;101260.06;;;27.92;56.38
38786;BME280;24535;45.508;12.252;2023-07-13T03:53:23;101250.88;;;27.87;56.56
38786;BME280;24535;45.508;12.252;2023-07-13T03:55:48;101250.88;;;27.87;56.14
38786;BME280;24535;45.508;12.252;2023-07-13T03:58:23;101255.47;;;27.79;56.40
38786;BME280;24535;45.508;12.252;2023-07-13T04:00:49;101254.38;;;27.74;56.49
38786;BME280;24535;45.508;12.252;2023-07-13T04:03:15;101246.22;;;27.67;56.78
38786;BME280;24535;45.508;12.252;2023-07-13T04:05:41;101252.63;;;27.59;56.99
38786;BME280;24535;45.508;12.252;2023-07-13T04:08:07;101271.16;;;27.56;57.03
38786;BME280;24535;45.508;12.252;2023-07-13T04:10:32;101271.56;;;27.53;57.35
38786;BME280;24535;45.508;12.252;2023-07-13T04:12:57;101270.50;;;27.54;57.66
38786;BME280;24535;45.508;12.252;2023-07-13T04:15:23;101277.19;;;27.58;57.00
38786;BME280;24535;45.508;12.252;2023-07-13T04:17:48;101269.72;;;27.60;57.42
38786;BME280;24535;45.508;12.252;2023-07-13T04:20:13;101273.28;;;27.67;57.57
38786;BME280;24535;45.508;12.252;2023-07-13T04:22:38;101275.56;;;27.70;56.88
38786;BME280;24535;45.508;12.252;2023-07-13T04:25:04;101270.38;;;27.69;56.83
38786;BME280;24535;45.508;12.252;2023-07-13T04:27:30;101270.16;;;27.70;57.30
38786;BME280;24535;45.508;12.252;2023-07-13T04:29:55;101282.44;;;27.66;56.85
38786;BME280;24535;45.508;12.252;2023-07-13T04:32:21;101280.56;;;27.67;56.84
38786;BME280;24535;45.508;12.252;2023-07-13T04:34:46;101278.66;;;27.60;56.81
38786;BME280;24535;45.508;12.252;2023-07-13T04:37:11;101272.38;;;27.53;56.70
38786;BME280;24535;45.508;12.252;2023-07-13T04:39:36;101273.19;;;27.47;57.57
38786;BME280;24535;45.508;12.252;2023-07-13T04:42:02;101276.47;;;27.43;57.16
38786;BME280;24535;45.508;12.252;2023-07-13T04:44:28;101277.53;;;27.42;57.08
38786;BME280;24535;45.508;12.252;2023-07-13T04:46:53;101281.50;;;27.39;57.63
38786;BME280;24535;45.508;12.252;2023-07-13T04:49:19;101282.94;;;27.42;57.49
38786;BME280;24535;45.508;12.252;2023-07-13T04:51:44;101299.19;;;27.42;57.37
38786;BME280;24535;45.508;12.252;2023-07-13T04:54:10;101291.09;;;27.48;57.52
38786;BME280;24535;45.508;12.252;2023-07-13T04:56:35;101293.00;;;27.54;56.85
38786;BME280;24535;45.508;12.252;2023-07-13T04:59:00;101289.06;;;27.57;56.37
38786;BME280;24535;45.508;12.252;2023-07-13T05:01:26;101282.59;;;27.58;56.35
38786;BME280;24535;45.508;12.252;2023-07-13T05:03:51;101287.00;;;27.59;56.41
38786;BME280;24535;45.508;12.252;2023-07-13T05:06:16;101299.50;;;27.60;56.35
38786;BME280;24535;45.508;12.252;2023-07-13T05:08:42;101298.06;;;27.64;56.27
38786;BME280;24535;45.508;12.252;2023-07-13T05:11:07;101301.59;;;27.65;56.08
38786;BME280;24535;45.508;12.252;2023-07-13T05:13:32;101303.25;;;27.66;55.83
38786;BME280;24535;45.508;12.252;2023-07-13T05:15:59;101297.22;;;27.64;55.85
38786;BME280;24535;45.508;12.252;2023-07-13T05:18:24;101301.59;;;27.65;56.34
38786;BME280;24535;45.508;12.252;2023-07-13T05:21:03;101305.34;;;27.64;55.75
38786;BME280;24535;45.508;12.252;2023-07-13T05:23:29;101309.94;;;27.63;56.27
38786;BME280;24535;45.508;12.252;2023-07-13T05:25:55;101307.84;;;27.65;56.60
38786;BME280;24535;45.508;12.252;2023-07-13T05:28:21;101305.19;;;27.72;56.16
38786;BME280;24535;45.508;12.252;2023-07-13T05:30:47;101311.69;;;27.77;56.14
38786;BME280;24535;45.508;12.252;2023-07-13T05:33:12;101309.63;;;27.79;56.33
38786;BME280;24535;45.508;12.252;2023-07-13T05:35:38;101305.88;;;27.87;56.19
38786;BME280;24535;45.508;12.252;2023-07-13T05:38:03;101305.28;;;27.92;55.79
38786;BME280;24535;45.508;12.252;2023-07-13T05:40:28;101305.50;;;27.97;56.10
38786;BME280;24535;45.508;12.252;2023-07-13T05:42:54;101308.88;;;28.05;56.23
38786;BME280;24535;45.508;12.252;2023-07-13T05:45:19;101306.38;;;28.10;55.61
38786;BME280;24535;45.508;12.252;2023-07-13T05:47:44;101310.97;;;28.10;55.67
38786;BME280;24535;45.508;12.252;2023-07-13T05:50:10;101314.09;;;28.14;55.55
38786;BME280;24535;45.508;12.252;2023-07-13T05:52:35;101312.88;;;28.16;55.28
38786;BME280;24535;45.508;12.252;2023-07-13T05:55:00;101308.72;;;28.20;55.34
38786;BME280;24535;45.508;12.252;2023-07-13T05:57:25;101310.59;;;28.20;55.57
38786;BME280;24535;45.508;12.252;2023-07-13T05:59:51;101301.19;;;28.22;55.64
38786;BME280;24535;45.508;12.252;2023-07-13T06:02:16;101294.31;;;28.26;55.95
38786;BME280;24535;45.508;12.252;2023-07-13T06:04:41;101303.09;;;28.35;55.69
38786;BME280;24535;45.508;12.252;2023-07-13T06:07:07;101318.78;;;28.46;55.56
38786;BME280;24535;45.508;12.252;2023-07-13T06:09:32;101320.06;;;28.57;55.67
38786;BME280;24535;45.508;12.252;2023-07-13T06:11:57;101321.09;;;28.69;55.27
38786;BME280;24535;45.508;12.252;2023-07-13T06:14:23;101329.47;;;28.81;55.40
38786;BME280;24535;45.508;12.252;2023-07-13T06:16:48;101327.56;;;28.88;54.71
38786;BME280;24535;45.508;12.252;2023-07-13T06:19:13;101324.47;;;28.98;54.17
38786;BME280;24535;45.508;12.252;2023-07-13T06:21:38;101326.97;;;29.06;54.41
38786;BME280;24535;45.508;12.252;2023-07-13T06:24:04;101330.28;;;29.08;53.37
38786;BME280;24535;45.508;12.252;2023-07-13T06:26:29;101328.41;;;29.08;52.73
38786;BME280;24535;45.508;12.252;2023-07-13T06:28:54;101308.81;;;29.06;53.00
38786;BME280;24535;45.508;12.252;2023-07-13T06:31:20;101312.75;;;29.04;53.12
38786;BME280;24535;45.508;12.252;2023-07-13T06:33:45;101293.16;;;29.02;53.24
38786;BME280;24535;45.508;12.252;2023-07-13T06:36:11;101270.63;;;29.01;53.19
38786;BME280;24535;45.508;12.252;2023-07-13T06:38:36;101267.66;;;28.96;53.17
38786;BME280;24535;45.508;12.252;2023-07-13T06:41:02;101261.41;;;28.96;53.78
38786;BME280;24535;45.508;12.252;2023-07-13T06:43:27;101264.38;;;29.01;53.67
38786;BME280;24535;45.508;12.252;2023-07-13T06:45:54;101277.50;;;29.04;53.83
38786;BME280;24535;45.508;12.252;2023-07-13T06:48:20;101293.56;;;29.12;53.73
38786;BME280;24535;45.508;12.252;2023-07-13T06:50:46;101287.69;;;29.22;52.91
38786;BME280;24535;45.508;12.252;2023-07-13T06:53:11;101268.47;;;29.30;52.97
38786;BME280;24535;45.508;12.252;2023-07-13T06:55:37;101258.84;;;29.34;52.98
38786;BME280;24535;45.508;12.252;2023-07-13T06:58:02;101271.38;;;29.35;52.15
38786;BME280;24535;45.508;12.252;2023-07-13T07:00:28;101275.75;;;29.36;52.37
38786;BME280;24535;45.508;12.252;2023-07-13T07:02:54;101282.84;;;29.37;52.19
38786;BME280;24535;45.508;12.252;2023-07-13T07:05:19;101290.16;;;29.37;52.36
38786;BME280;24535;45.508;12.252;2023-07-13T07:07:47;101294.34;;;29.39;53.02
38786;BME280;24535;45.508;12.252;2023-07-13T07:10:12;101286.81;;;29.41;52.85
38786;BME280;24535;45.508;12.252;2023-07-13T07:12:37;101290.97;;;29.44;52.54
38786;BME280;24535;45.508;12.252;2023-07-13T07:15:02;101286.19;;;29.46;52.63
38786;BME280;24535;45.508;12.252;2023-07-13T07:17:28;101283.22;;;29.47;52.56
38786;BME280;24535;45.508;12.252;2023-07-13T07:19:53;101276.16;;;29.46;52.61
38786;BME280;24535;45.508;12.252;2023-07-13T07:22:19;101290.31;;;29.48;53.18
38786;BME280;24535;45.508;12.252;2023-07-13T07:24:44;101290.13;;;29.50;53.06
38786;BME280;24535;45.508;12.252;2023-07-13T07:27:10;101278.00;;;29.52;52.36
38786;BME280;24535;45.508;12.252;2023-07-13T07:29:35;101280.69;;;29.52;52.84
38786;BME280;24535;45.508;12.252;2023-07-13T07:32:00;101305.56;;;29.56;52.83
38786;BME280;24535;45.508;12.252;2023-07-13T07:34:25;101331.28;;;29.60;52.79
38786;BME280;24535;45.508;12.252;2023-07-13T07:36:51;101327.06;;;29.64;53.11
38786;BME280;24535;45.508;12.252;2023-07-13T07:39:16;101322.06;;;29.68;53.06
38786;BME280;24535;45.508;12.252;2023-07-13T07:41:42;101306.16;;;29.71;52.54
38786;BME280;24535;45.508;12.252;2023-07-13T07:44:07;101299.66;;;29.72;52.62
38786;BME280;24535;45.508;12.252;2023-07-13T07:46:34;101303.03;;;29.74;51.83
38786;BME280;24535;45.508;12.252;2023-07-13T07:49:00;101300.50;;;29.73;51.83
38786;BME280;24535;45.508;12.252;2023-07-13T07:51:25;101295.53;;;29.70;51.89
38786;BME280;24535;45.508;12.252;2023-07-13T07:53:51;101298.25;;;29.70;52.60
38786;BME280;24535;45.508;12.252;2023-07-13T07:56:16;101289.03;;;29.71;52.55
38786;BME280;24535;45.508;12.252;2023-07-13T07:58:42;101298.84;;;29.72;52.79
38786;BME280;24535;45.508;12.252;2023-07-13T08:01:07;101308.44;;;29.74;52.31
38786;BME280;24535;45.508;12.252;2023-07-13T08:03:33;101308.44;;;29.74;51.86
38786;BME280;24535;45.508;12.252;2023-07-13T08:05:58;101312.59;;;29.77;52.22
38786;BME280;24535;45.508;12.252;2023-07-13T08:08:23;101330.97;;;29.81;52.41
38786;BME280;24535;45.508;12.252;2023-07-13T08:10:49;101339.75;;;29.84;52.33
38786;BME280;24535;45.508;12.252;2023-07-13T08:13:14;101349.56;;;29.85;51.63
38786;BME280;24535;45.508;12.252;2023-07-13T08:15:39;101353.75;;;29.87;51.05
38786;BME280;24535;45.508;12.252;2023-07-13T08:18:05;101358.97;;;29.89;52.15
38786;BME280;24535;45.508;12.252;2023-07-13T08:20:31;101362.31;;;29.91;51.46
38786;BME280;24535;45.508;12.252;2023-07-13T08:22:56;101356.88;;;29.91;51.79
38786;BME280;24535;45.508;12.252;2023-07-13T08:25:21;101356.41;;;29.94;52.10
38786;BME280;24535;45.508;12.252;2023-07-13T08:27:47;101361.44;;;29.97;52.04
38786;BME280;24535;45.508;12.252;2023-07-13T08:30:13;101361.44;;;29.97;52.22
38786;BME280;24535;45.508;12.252;2023-07-13T08:32:38;101350.13;;;30.00;52.09
38786;BME280;24535;45.508;12.252;2023-07-13T08:35:04;101340.91;;;30.01;51.53
38786;BME280;24535;45.508;12.252;2023-07-13T08:37:29;101338.00;;;30.02;51.56
38786;BME280;24535;45.508;12.252;2023-07-13T08:39:55;101346.38;;;30.01;51.62
38786;BME280;24535;45.508;12.252;2023-07-13T08:44:56;101364.31;;;30.02;51.61
38786;BME280;24535;45.508;12.252;2023-07-13T08:47:22;101349.72;;;30.03;52.10
38786;BME280;24535;45.508;12.252;2023-07-13T08:49:48;101333.41;;;30.03;51.46
38786;BME280;24535;45.508;12.252;2023-07-13T08:52:17;101328.56;;;30.05;51.35
38786;BME280;24535;45.508;12.252;2023-07-13T08:54:49;101329.19;;;30.07;51.44
38786;BME280;24535;45.508;12.252;2023-07-13T08:57:17;101322.94;;;30.07;51.26
38786;BME280;24535;45.508;12.252;2023-07-13T08:59:44;101322.72;;;30.08;51.61
38786;BME280;24535;45.508;12.252;2023-07-13T09:04:54;101354.91;;;30.11;51.38
38786;BME280;24535;45.508;12.252;2023-07-13T09:07:28;101364.47;;;30.14;51.39
38786;BME280;24535;45.508;12.252;2023-07-13T09:10:04;101346.31;;;30.14;50.75
38786;BME280;24535;45.508;12.252;2023-07-13T09:12:34;101325.59;;;30.13;50.30
38786;BME280;24535;45.508;12.252;2023-07-13T09:15:01;101322.88;;;30.13;50.99
38786;BME280;24535;45.508;12.252;2023-07-13T09:17:32;101328.53;;;30.12;51.00
38786;BME280;24535;45.508;12.252;2023-07-13T09:20:08;101356.31;;;30.14;51.39
38786;BME280;24535;45.508;12.252;2023-07-13T09:22:36;101378.06;;;30.14;50.56
38786;BME280;24535;45.508;12.252;2023-07-13T09:25:10;101385.41;;;30.13;51.13
38786;BME280;24535;45.508;12.252;2023-07-13T09:27:42;101388.34;;;30.12;50.84
38786;BME280;24535;45.508;12.252;2023-07-13T09:32:37;101374.97;;;30.10;50.75
38786;BME280;24535;45.508;12.252;2023-07-13T09:35:09;101361.38;;;30.10;50.52
38786;BME280;24535;45.508;12.252;2023-07-13T09:37:36;101358.03;;;30.08;50.30
38786;BME280;24535;45.508;12.252;2023-07-13T09:40:02;101359.09;;;30.07;50.54
38786;BME280;24535;45.508;12.252;2023-07-13T09:42:34;101353.44;;;30.09;50.92
38786;BME280;24535;45.508;12.252;2023-07-13T09:45:00;101340.06;;;30.07;50.62
38786;BME280;24535;45.508;12.252;2023-07-13T09:47:28;101352.19;;;30.04;50.65
38786;BME280;24535;45.508;12.252;2023-07-13T09:50:05;101346.16;;;30.02;50.47
38786;BME280;24535;45.508;12.252;2023-07-13T09:52:42;101308.97;;;29.96;50.64
38786;BME280;24535;45.508;12.252;2023-07-13T09:57:52;101262.03;;;29.83;50.20
38786;BME280;24535;45.508;12.252;2023-07-13T10:00:28;101276.03;;;29.79;50.69
38786;BME280;24535;45.508;12.252;2023-07-13T10:05:41;101246.63;;;29.70;50.90
38786;BME280;24535;45.508;12.252;2023-07-13T10:10:43;101293.25;;;29.60;51.48
38786;BME280;24535;45.508;12.252;2023-07-13T10:16:07;101273.81;;;29.63;52.24
38786;BME280;24535;45.508;12.252;2023-07-13T10:21:28;101228.50;;;29.57;52.45
38786;BME280;24535;45.508;12.252;2023-07-13T10:24:02;101236.63;;;29.57;52.46
38786;BME280;24535;45.508;12.252;2023-07-13T10:26:31;101244.34;;;29.60;52.35
38786;BME280;24535;45.508;12.252;2023-07-13T10:28:59;101251.25;;;29.63;52.49
38786;BME280;24535;45.508;12.252;2023-07-13T10:31:26;101272.56;;;29.66;52.59
38786;BME280;24535;45.508;12.252;2023-07-13T10:33:52;101286.50;;;29.69;52.76
38786;BME280;24535;45.508;12.252;2023-07-13T10:38:43;101280.63;;;29.79;52.51
38786;BME280;24535;45.508;12.252;2023-07-13T10:41:14;101279.81;;;29.78;52.59
38786;BME280;24535;45.508;12.252;2023-07-13T10:43:45;101282.94;;;29.82;52.95
38786;BME280;24535;45.508;12.252;2023-07-13T10:46:12;101282.47;;;29.85;52.85
38786;BME280;24535;45.508;12.252;2023-07-13T10:48:40;101286.66;;;29.88;52.66
38786;BME280;24535;45.508;12.252;2023-07-13T10:51:07;101303.97;;;29.93;53.00
38786;BME280;24535;45.508;12.252;2023-07-13T10:53:33;101307.47;;;30.00;52.87
38786;BME280;24535;45.508;12.252;2023-07-13T10:56:03;101303.91;;;30.07;52.83
38786;BME280;24535;45.508;12.252;2023-07-13T10:58:33;101302.81;;;30.14;52.69
38786;BME280;24535;45.508;12.252;2023-07-13T11:03:24;101337.22;;;30.34;52.06
38786;BME280;24535;45.508;12.252;2023-07-13T11:06:04;101344.53;;;30.40;52.16
38786;BME280;24535;45.508;12.252;2023-07-13T11:10:56;101346.47;;;30.58;51.67
38786;BME280;24535;45.508;12.252;2023-07-13T11:13:38;101349.34;;;30.63;51.49
38786;BME280;24535;45.508;12.252;2023-07-13T11:18:49;101337.59;;;30.75;51.21
38786;BME280;24535;45.508;12.252;2023-07-13T11:21:15;101341.53;;;30.80;51.27
38786;BME280;24535;45.508;12.252;2023-07-13T11:23:42;101334.59;;;30.84;51.27
38786;BME280;24535;45.508;12.252;2023-07-13T11:28:54;101327.44;;;30.89;51.05
38786;BME280;24535;45.508;12.252;2023-07-13T11:31:19;101320.72;;;30.92;50.84
38786;BME280;24535;45.508;12.252;2023-07-13T11:33:52;101307.94;;;30.92;50.69
38786;BME280;24535;45.508;12.252;2023-07-13T11:36:19;101307.69;;;30.94;50.87
38786;BME280;24535;45.508;12.252;2023-07-13T11:38:58;101295.53;;;30.96;50.66
38786;BME280;24535;45.508;12.252;2023-07-13T11:41:26;101294.72;;;30.96;50.39
38786;BME280;24535;45.508;12.252;2023-07-13T11:43:54;101299.09;;;30.97;50.07
38786;BME280;24535;45.508;12.252;2023-07-13T11:46:23;101291.75;;;30.97;50.34
38786;BME280;24535;45.508;12.252;2023-07-13T11:48:49;101280.63;;;30.99;49.80
38786;BME280;24535;45.508;12.252;2023-07-13T11:53:45;101279.13;;;31.03;50.19
38786;BME280;24535;45.508;12.252;2023-07-13T11:56:11;101272.66;;;31.04;49.64
38786;BME280;24535;45.508;12.252;2023-07-13T11:58:37;101269.09;;;31.03;49.56
38786;BME280;24535;45.508;12.252;2023-07-13T12:01:03;101269.69;;;31.06;49.98
38786;BME280;24535;45.508;12.252;2023-07-13T12:03:32;101262.97;;;31.08;49.94
38786;BME280;24535;45.508;12.252;2023-07-13T12:06:03;101261.28;;;31.07;50.08
38786;BME280;24535;45.508;12.252;2023-07-13T12:08:30;101261.09;;;31.09;49.99
38786;BME280;24535;45.508;12.252;2023-07-13T12:11:00;101260.25;;;31.08;49.49
38786;BME280;24535;45.508;12.252;2023-07-13T12:13:34;101262.50;;;31.11;50.00
38786;BME280;24535;45.508;12.252;2023-07-13T12:16:00;101253.31;;;31.12;50.07
38786;BME280;24535;45.508;12.252;2023-07-13T12:18:28;101249.50;;;31.13;49.96
38786;BME280;24535;45.508;12.252;2023-07-13T12:20:55;101246.78;;;31.13;49.85
38786;BME280;24535;45.508;12.252;2023-07-13T12:25:51;101242.56;;;31.17;50.07
38786;BME280;24535;45.508;12.252;2023-07-13T12:28:51;101239.59;;;31.19;50.29
38786;BME280;24535;45.508;12.252;2023-07-13T12:36:49;101215.47;;;31.22;49.88
38786;BME280;24535;45.508;12.252;2023-07-13T12:39:25;101205.41;;;31.23;49.65
38786;BME280;24535;45.508;12.252;2023-07-13T12:41:51;101203.31;;;31.25;49.92
38786;BME280;24535;45.508;12.252;2023-07-13T12:44:26;101197.84;;;31.25;50.05
38786;BME280;24535;45.508;12.252;2023-07-13T12:46:59;101194.31;;;31.24;50.07
38786;BME280;24535;45.508;12.252;2023-07-13T12:49:30;101192.63;;;31.23;50.19
38786;BME280;24535;45.508;12.252;2023-07-13T12:52:00;101193.47;;;31.24;50.01
38786;BME280;24535;45.508;12.252;2023-07-13T12:54:26;101188.88;;;31.24;49.83
38786;BME280;24535;45.508;12.252;2023-07-13T12:56:52;101190.50;;;31.25;50.35
38786;BME280;24535;45.508;12.252;2023-07-13T12:59:19;101174.75;;;31.27;50.24
38786;BME280;24535;45.508;12.252;2023-07-13T13:01:45;101171.00;;;31.28;49.53
38786;BME280;24535;45.508;12.252;2023-07-13T13:04:11;101170.56;;;31.32;49.09
38786;BME280;24535;45.508;12.252;2023-07-13T13:06:38;101174.72;;;31.34;49.71
38786;BME280;24535;45.508;12.252;2023-07-13T13:09:03;101160.66;;;31.37;49.09
38786;BME280;24535;45.508;12.252;2023-07-13T13:11:34;101163.13;;;31.39;49.29
38786;BME280;24535;45.508;12.252;2023-07-13T13:13:59;101154.97;;;31.39;49.35
38786;BME280;24535;45.508;12.252;2023-07-13T13:18:51;101145.13;;;31.38;49.78
38786;BME280;24535;45.508;12.252;2023-07-13T13:21:17;101138.88;;;31.37;49.48
38786;BME280;24535;45.508;12.252;2023-07-13T13:23:43;101134.25;;;31.38;49.59
38786;BME280;24535;45.508;12.252;2023-07-13T13:26:16;101134.88;;;31.40;49.45
38786;BME280;24535;45.508;12.252;2023-07-13T13:28:42;101135.91;;;31.39;49.78
38786;BME280;24535;45.508;12.252;2023-07-13T13:31:09;101139.44;;;31.39;49.67